Pirtleville, Arizona
Current Conditions -  °F | °C
As of 7:56 PM on Saturday 24 Jan 2015 (Local Time) from KDUG Reporting Station
Clear Clear  
Wind Chill: 34°   Ceiling: Unl
Heat Index: 39°   Visibility: 10mi
Dew Point: 12°   Wind: 7mph
Humidity: 33%   Direction: 350°N
Pressure: 30.16"   Gusts: NA
Location:  31.36°N, 109.57°W
Report Text: KDUG 250256Z AUTO 35006KT 10SM CLR 04/M11 A3016 RMK AO2 SLP219 T00391111 51010
Loading
Personal Weather Stations






























Interactive Weather Map New forecast layout! Learn more

10-Day Weather Forecast

Advertisements
Track Severe Weather on mobile